Flight Track Log - Related Links

Times and Time Zones

All times are in EDT time to prevent confusion due to time zone crossing. See the UAL4335 flight status page for this flight to view local times or setup timezone preferences in your user account.

Time Position Orientation Groundspeed Altitude Reporting Facility
EDT Latitude Longitude Course Direction KTS MPH feet Rate Location/Type
Thu 04:59:08 PM 29.9861 -95.3575 291° West 169 194 700  Level Houston Center
Thu 05:00:14 PM 29.9897 -95.4272 273° West 244 281 2,100 1,744 Climbing Houston Center
Thu 05:00:34 PM 29.9847 -95.4589 260° West 271 312 3,200 3,097 Climbing Houston Center
Thu 05:01:16 PM 29.9806 -95.5100 265° West 256 295 5,300 3,290 Climbing Houston Center
Thu 05:01:36 PM 29.9753 -95.5397 258° West 256 295 6,600 2,903 Climbing Houston Center
Thu 05:02:00 PM 30.0322 -95.7896 277° West  Level FlightAware Approximate
Thu 05:02:18 PM 29.9808 -95.5894 277° West 251 289 8,300  Level Houston Center
Thu 05:02:43 PM 29.9878 -95.6322 281° West 259 298 9,800 2,419 Climbing Houston Center
Thu 05:03:00 PM 30.0421 -95.9044 276° West  Level FlightAware Approximate
Thu 05:03:20 PM 29.9956 -95.6686 284° West 253 291 10,800  Level Houston Center
Thu 05:03:38 PM 30.0031 -95.7078 282° West 278 320 11,100 581 Climbing Houston Center
Thu 05:04:00 PM 30.0560 -96.0181 291° West  Level FlightAware Approximate
Thu 05:04:22 PM 30.0136 -95.7603 283° West 296 341 11,400  Level Houston Center
Thu 05:05:25 PM 30.0369 -95.8844 282° West 330 380 13,500 1,680 Climbing Houston Center
Thu 05:06:27 PM 30.0564 -95.9897 282° West 337 388 14,900 1,452 Climbing Houston Center
Thu 05:07:29 PM 30.0761 -96.0928 282° West 345 397 16,500 1,452 Climbing Houston Center
Thu 05:08:31 PM 30.0922 -96.2011 280° West 345 397 17,900 1,210 Climbing Houston Center
Thu 05:09:33 PM 30.1125 -96.3339 280° West 351 404 19,000 1,065 Climbing Houston Center
Thu 05:10:35 PM 30.1289 -96.4433 280° West 365 420 20,100 1,016 Climbing Houston Center
Thu 05:11:37 PM 30.1464 -96.5594 280° West 365 420 21,100 768 Climbing Houston Center
Thu 05:12:40 PM 30.1650 -96.6783 280° West 370 426 21,700 576 Climbing Houston Center
Thu 05:13:42 PM 30.1867 -96.8239 280° West 385 443 22,300 629 Climbing Houston Center
Thu 05:14:44 PM 30.2056 -96.9475 280° West 387 445 23,000 726 Climbing Houston Center
Thu 05:15:46 PM 30.2236 -97.0731 279° West 390 449 23,800 774 Climbing Houston Center
Thu 05:16:48 PM 30.2419 -97.1975 280° West 389 448 24,600 726 Climbing Houston Center
Thu 05:17:50 PM 30.2600 -97.3214 280° West 387 445 25,300 726 Climbing Houston Center
Thu 05:18:52 PM 30.2778 -97.4447 280° West 385 443 26,100 774 Climbing Houston Center
Thu 05:19:54 PM 30.2961 -97.5675 280° West 381 438 26,900 768 Climbing Houston Center
Thu 05:20:57 PM 30.3125 -97.6894 279° West 379 436 27,700 816 Climbing Houston Center
Thu 05:21:59 PM 30.3383 -97.8289 282° West 375 432 28,600 823 Climbing Houston Center
Thu 05:23:01 PM 30.3708 -97.9433 288° West 369 425 29,400 774 Climbing Houston Center
Thu 05:24:03 PM 30.4025 -98.0597 288° West 373 429 30,200 774 Climbing Houston Center
Thu 05:25:05 PM 30.4372 -98.1769 289° West 378 435 31,000 726 Climbing Houston Center
Thu 05:26:07 PM 30.4711 -98.2961 288° West 382 440 31,700 823 Climbing Houston Center
Thu 05:27:09 PM 30.5042 -98.4144 288° West 383 441 32,700 919 Climbing Houston Center
Thu 05:28:11 PM 30.5367 -98.5317 288° West 379 436 33,600 624 Climbing Houston Center
Thu 05:29:14 PM 30.5756 -98.6694 288° West 381 438 34,000 192 Climbing Houston Center
Thu 05:30:16 PM 30.6092 -98.7892 288° West 385 443 34,000  Level Houston Center
Thu 05:31:18 PM 30.6428 -98.9083 288° West 385 443 34,000  Level Houston Center
Thu 05:32:20 PM 30.6756 -99.0286 288° West 386 444 34,000 -48 Level Houston Center
Thu 05:33:22 PM 30.7094 -99.1481 288° West 384 442 33,900  Descending Houston Center
Thu 05:34:24 PM 30.7422 -99.2658 288° West 384 442 34,000 48 Climbing Houston Center
Thu 05:35:26 PM 30.7742 -99.3844 287° West 384 442 34,000  Level Houston Center
Thu 05:36:28 PM 30.8108 -99.5244 287° West 378 435 34,000  Level Houston Center
Thu 05:37:31 PM 30.8442 -99.6431 288° West 387 445 34,000  Level Houston Center
Thu 05:38:33 PM 30.8764 -99.7619 288° West 386 444 34,000  Level Houston Center
Thu 05:39:35 PM 30.9083 -99.8817 287° West 389 448 34,000  Level Houston Center
Thu 05:40:37 PM 30.9394 -100.0006 287° West 385 443 34,000  Level Houston Center
Thu 05:41:39 PM 30.9775 -100.1433 287° West 387 445 34,000  Level Houston Center
Thu 05:42:41 PM 31.0106 -100.2625 288° West 391 450 34,000  Level Houston Center
Thu 05:43:43 PM 31.0411 -100.3819 287° West 387 445 34,000  Level Houston Center
Thu 05:44:45 PM 31.0833 -100.4975 293° West 387 445 34,000  Level Houston Center
Thu 05:45:43 PM 31.1456 -100.6025 305° West 381 438 34,000 -51 Level Fort Worth Center
Thu 05:46:43 PM 31.2119 -100.7044 307° West 393 452 33,900  Descending Fort Worth Center
Thu 05:47:43 PM 31.2844 -100.8017 311° West 393 452 34,000 50 Climbing Fort Worth Center
Thu 05:48:43 PM 31.3569 -100.8992 311° West 393 452 34,000  Level Fort Worth Center
Thu 05:48:58 PM 31.3708 -100.9144 317° Northwest 398 458 34,000  Level Albuquerque Center
Thu 05:49:43 PM 31.4314 -100.9969 311° West 393 452 34,000  Level Fort Worth Center
Thu 05:50:43 PM 31.5039 -101.0972 310° West 398 458 34,000  Level Fort Worth Center
Thu 05:51:43 PM 31.5761 -101.1953 311° West 398 458 34,000  Level Fort Worth Center
Thu 05:52:43 PM 31.6522 -101.2958 312° West 398 458 34,000  Level Fort Worth Center
Thu 05:53:43 PM 31.7203 -101.3917 310° West 393 452 34,000  Level Fort Worth Center
Thu 05:54:43 PM 31.7964 -101.4950 311° West 403 464 34,000  Level Fort Worth Center
Thu 05:55:43 PM 31.8681 -101.5936 311° West 403 464 34,000  Level Fort Worth Center
Thu 05:56:43 PM 31.9419 -101.6950 311° West 403 464 34,000  Level Fort Worth Center
Thu 05:57:43 PM 32.0117 -101.7939 310° West 397 457 34,000  Level Fort Worth Center
Thu 05:58:43 PM 32.0911 -101.9056 310° West 405 466 34,000  Level Fort Worth Center
Thu 05:59:43 PM 32.1628 -102.0072 310° West 405 466 34,000  Level Fort Worth Center
Thu 06:00:43 PM 32.2342 -102.1064 310° West 400 460 34,000  Level Fort Worth Center
Thu 06:01:43 PM 32.3056 -102.2061 310° West 400 460 34,000  Level Fort Worth Center
Thu 06:02:43 PM 32.3767 -102.3083 309° West 400 460 34,000  Level Fort Worth Center
Thu 06:03:43 PM 32.4519 -102.4108 311° West 406 467 34,000  Level Fort Worth Center
Thu 06:04:43 PM 32.5253 -102.5108 311° West 406 467 34,000  Level Fort Worth Center
Thu 06:05:43 PM 32.5881 -102.6056 308° West 401 461 34,000  Level Fort Worth Center
Thu 06:06:43 PM 32.6611 -102.7061 311° West 401 461 34,000  Level Fort Worth Center
Thu 06:07:43 PM 32.7319 -102.8092 309° West 401 461 34,000  Level Fort Worth Center
Thu 06:08:43 PM 32.8047 -102.9072 311° West 401 461 34,000  Level Fort Worth Center
Thu 06:09:43 PM 32.8714 -103.0078 308° West 396 456 34,000  Level Fort Worth Center
Thu 06:11:39 PM 33.0083 -103.2042 310° West 396 456 34,000  Level Albuquerque Center
Thu 06:12:41 PM 33.0775 -103.3022 310° West 390 449 34,000  Level Albuquerque Center
Thu 06:13:43 PM 33.1467 -103.4025 309° West 390 449 34,000  Level Albuquerque Center
Thu 06:14:45 PM 33.2150 -103.5036 309° West 391 450 34,000  Level Albuquerque Center
Thu 06:15:47 PM 33.2836 -103.6014 310° West 387 445 34,000  Level Albuquerque Center
Thu 06:16:49 PM 33.3706 -103.7233 311° West 393 452 34,000  Level Albuquerque Center
Thu 06:17:51 PM 33.4381 -103.8233 309° West 390 449 34,000  Level Albuquerque Center
Thu 06:18:53 PM 33.5106 -103.9308 309° West 388 447 34,000  Level Albuquerque Center
Thu 06:19:55 PM 33.5786 -104.0311 309° West 389 448 34,000  Level Albuquerque Center
Thu 06:20:56 PM 33.6522 -104.1392 309° West 390 449 34,000  Level Albuquerque Center
Thu 06:21:58 PM 33.7206 -104.2406 309° West 392 451 34,000  Level Albuquerque Center
Thu 06:23:00 PM 33.7950 -104.3506 309° West 396 456 34,000  Level Albuquerque Center
Thu 06:24:02 PM 33.8636 -104.4531 309° West 395 455 34,000  Level Albuquerque Center
Thu 06:25:04 PM 33.9317 -104.5553 309° West 393 452 34,000  Level Albuquerque Center
Thu 06:26:06 PM 34.0047 -104.6631 309° West 388 447 34,000  Level Albuquerque Center
Thu 06:27:08 PM 34.0733 -104.7633 310° West 389 448 34,000  Level Albuquerque Center
Thu 06:28:10 PM 34.1403 -104.8661 308° West 387 445 34,000  Level Albuquerque Center
Thu 06:29:12 PM 34.2086 -104.9686 309° West 388 447 34,000  Level Albuquerque Center
Thu 06:30:15 PM 34.2772 -105.0711 309° West 388 447 34,000  Level Albuquerque Center
Thu 06:31:15 PM 34.3453 -105.1733 309° West 387 445 34,000 -787 Level Albuquerque Center
Thu 06:32:17 PM 34.4125 -105.2767 308° West 387 445 32,400 -1,887 Descending Albuquerque Center
Thu 06:33:19 PM 34.4925 -105.3975 309° West 387 445 30,100 -2,081 Descending Albuquerque Center
Thu 06:34:21 PM 34.5614 -105.5036 308° West 393 452 28,100 -2,323 Descending Albuquerque Center
Thu 06:35:23 PM 34.6336 -105.6122 309° West 404 465 25,300 -2,655 Descending Albuquerque Center
Thu 06:36:14 PM 34.6872 -105.6992 307° West 391 450 23,100 -2,435 Descending Albuquerque Center
Thu 06:36:32 PM 34.7078 -105.7297 309° West 385 443 22,500 -2,430 Descending Albuquerque Center
Thu 06:37:33 PM 34.7764 -105.8358 308° West 402 463 19,900 -2,328 Descending Albuquerque Center
Thu 06:38:28 PM 34.8383 -105.9269 310° West 395 455 18,000 -2,256 Descending Albuquerque Center
Thu 06:39:30 PM 34.8978 -106.0203 308° West 365 420 15,500 -2,585 Descending Albuquerque Center
Thu 06:40:31 PM 34.9544 -106.1103 308° West 344 396 12,700 -2,592 Descending Albuquerque Center
Thu 06:41:35 PM 34.9806 -106.2350 284° West 311 358 10,100 -1,500 Descending Albuquerque Center
Thu 06:42:35 PM 35.0025 -106.3042 291° West 299 344 9,600 -590 Descending Albuquerque Center
Thu 06:43:37 PM 35.0214 -106.3989 284° West 259 298 8,900 -677 Descending Albuquerque Center

Login

Don't have an account? Register now (free) for customized features, flight alerts, and more!